Time;durP1;ratioP1;P1;durP2;ratioP2;P2;SDS_P1;SDS_P2;PMS_P1;PMS_P2;Temp;Humidity;BMP_temperature;BMP_pressure;BME280_temperature;BME280_humidity;BME280_pressure;Samples;Min_cycle;Max_cycle;Signal;HPM_P1;HPM_P2
2023/07/03 00:01:19;;;;;;;3.13;2.10;;;;;;;16.47;100.00;97832.25;5139921;28;20134;-59
2023/07/03 00:03:45;;;;;;;2.47;1.90;;;;;;;16.48;100.00;97848.41;5139477;28;20147;-59
2023/07/03 00:06:10;;;;;;;9.50;2.55;;;;;;;16.22;100.00;97871.63;5139799;28;20393;-59
2023/07/03 00:08:36;;;;;;;5.78;2.28;;;;;;;16.47;100.00;97876.53;5139343;28;20051;-53
2023/07/03 00:11:04;;;;;;;5.30;2.47;;;;;;;16.61;100.00;97709.34;5139421;28;20046;-54
2023/07/03 00:13:30;;;;;;;9.93;2.65;;;;;;;16.57;100.00;97717.00;5139467;27;20055;-54
2023/07/03 00:16:00;;;;;;;13.40;2.63;;;;;;;16.73;100.00;97523.22;5139425;27;20055;-58
2023/07/03 00:18:26;;;;;;;3.22;2.13;;;;;;;16.90;100.00;97408.38;5139568;28;20138;-60
2023/07/03 00:20:54;;;;;;;6.47;2.45;;;;;;;17.08;100.00;97344.06;5139290;28;20133;-57
2023/07/03 00:23:20;;;;;;;8.25;2.50;;;;;;;16.90;100.00;97267.22;5139517;27;20146;-59
2023/07/03 00:25:46;;;;;;;7.18;2.17;;;;;;;16.96;100.00;97281.25;5139281;28;20154;-56
2023/07/03 00:28:12;;;;;;;8.73;3.97;;;;;;;17.01;100.00;97255.75;5139475;27;20051;-55
2023/07/03 00:30:38;;;;;;;3.85;2.05;;;;;;;16.83;100.00;97233.53;5138955;28;20062;-52
2023/07/03 00:33:04;;;;;;;4.25;2.00;;;;;;;17.00;100.00;97290.19;5139330;28;20156;-53
2023/07/03 00:35:30;;;;;;;3.88;1.98;;;;;;;16.72;100.00;97297.50;5139183;28;20055;-54
2023/07/03 00:37:56;;;;;;;6.25;2.33;;;;;;;16.70;100.00;97347.00;5138834;27;20431;-52
2023/07/03 00:40:22;;;;;;;9.13;3.35;;;;;;;16.60;100.00;97373.84;5139119;28;20055;-53
2023/07/03 00:42:52;;;;;;;9.40;3.63;;;;;;;16.47;100.00;97411.84;5138759;27;20378;-60
2023/07/03 00:45:18;;;;;;;6.60;3.22;;;;;;;16.46;100.00;97473.88;5139081;28;20086;-58
2023/07/03 00:47:44;;;;;;;2.35;1.70;;;;;;;16.30;100.00;97491.41;5138696;28;20146;-53
2023/07/03 00:50:11;;;;;;;2.33;1.85;;;;;;;15.96;100.00;97537.06;5139006;28;20138;-55
2023/07/03 00:52:38;;;;;;;5.75;3.30;;;;;;;16.18;100.00;97544.69;5138700;28;20057;-56
2023/07/03 00:55:06;;;;;;;9.70;3.55;;;;;;;16.14;100.00;97585.50;5139042;27;20051;-58
2023/07/03 00:57:32;;;;;;;6.00;2.47;;;;;;;16.13;100.00;97570.91;5138577;27;20134;-55
2023/07/03 00:59:59;;;;;;;5.45;2.40;;;;;;;16.13;100.00;97492.75;5139019;28;20084;-57
2023/07/03 01:02:30;;;;;;;4.75;2.42;;;;;;;16.18;100.00;97459.00;5138392;28;20065;-58
2023/07/03 01:05:01;;;;;;;4.00;2.20;;;;;;;16.03;100.00;97502.91;5138654;28;20100;-57
2023/07/03 01:07:32;;;;;;;5.00;1.88;;;;;;;15.77;100.00;97502.88;5138476;28;20047;-60
2023/07/03 01:10:04;;;;;;;7.00;3.03;;;;;;;15.84;100.00;97501.88;5138550;28;20083;-58
2023/07/03 01:12:32;;;;;;;7.85;3.97;;;;;;;15.74;100.00;97549.94;5138407;28;20090;-58
2023/07/03 01:15:02;;;;;;;7.20;2.67;;;;;;;15.82;100.00;97561.56;5138412;28;20138;-58
2023/07/03 01:17:29;;;;;;;5.18;2.33;;;;;;;15.88;100.00;97595.72;5138733;28;20082;-53
2023/07/03 01:19:57;;;;;;;4.68;2.42;;;;;;;15.89;100.00;97517.13;5138300;28;20130;-55
2023/07/03 01:22:26;;;;;;;6.63;2.90;;;;;;;15.87;100.00;97527.88;5138680;28;20328;-57
2023/07/03 01:24:56;;;;;;;4.10;2.13;;;;;;;15.84;100.00;97564.66;5138121;28;20043;-60
2023/07/03 01:27:25;;;;;;;2.92;2.47;;;;;;;15.69;100.00;97591.91;5138341;28;20134;-57
2023/07/03 01:29:52;;;;;;;5.60;2.65;;;;;;;15.59;100.00;97643.44;5138387;28;20047;-53
2023/07/03 01:32:21;;;;;;;10.68;3.20;;;;;;;15.23;100.00;97715.41;5138165;28;20154;-55
2023/07/03 01:34:50;;;;;;;12.30;2.97;;;;;;;15.23;100.00;97821.06;5138353;27;20146;-59
2023/07/03 01:37:18;;;;;;;7.38;2.97;;;;;;;15.19;100.00;97734.00;5137886;28;20435;-60
2023/07/03 01:39:45;;;;;;;10.90;2.90;;;;;;;15.50;100.00;97704.84;5138002;27;20054;-59
2023/07/03 01:42:13;;;;;;;8.27;2.97;;;;;;;15.51;100.00;97653.91;5137946;28;20134;-54
2023/07/03 01:44:39;;;;;;;7.25;2.67;;;;;;;15.47;100.00;97650.47;5138282;27;20324;-57
2023/07/03 01:47:08;;;;;;;8.68;3.25;;;;;;;15.41;100.00;97624.59;5137815;28;20196;-60
2023/07/03 01:49:34;;;;;;;10.90;3.88;;;;;;;15.41;100.00;97637.63;5138273;28;20061;-60
2023/07/03 01:52:08;;;;;;;7.47;3.15;;;;;;;15.31;100.00;97603.56;5137889;28;20051;-60
2023/07/03 01:54:41;;;;;;;11.73;3.05;;;;;;;15.52;100.00;97516.59;5137132;27;20151;-58
2023/07/03 01:57:09;;;;;;;5.13;2.67;;;;;;;15.49;100.00;97432.66;5138031;28;20137;-52
2023/07/03 01:59:37;;;;;;;8.73;3.25;;;;;;;15.45;100.00;97404.34;5137590;28;20043;-53
2023/07/03 02:02:07;;;;;;;7.78;2.58;;;;;;;15.49;100.00;97427.13;5137837;28;20061;-52
2023/07/03 02:04:38;;;;;;;7.80;2.67;;;;;;;15.38;100.00;97352.09;5137637;28;20449;-57
2023/07/03 02:07:06;;;;;;;12.98;3.55;;;;;;;15.53;100.00;97377.31;5137879;28;20099;-59
2023/07/03 02:09:33;;;;;;;6.75;2.85;;;;;;;15.46;100.00;97389.34;5137447;28;20089;-56
2023/07/03 02:11:59;;;;;;;13.00;3.97;;;;;;;15.56;100.00;97373.66;5137774;27;20122;-60
2023/07/03 02:14:25;;;;;;;9.25;2.78;;;;;;;15.52;100.00;97368.22;5137424;28;20302;-56
2023/07/03 02:16:52;;;;;;;4.10;2.47;;;;;;;15.66;100.00;97350.50;5137559;28;20051;-57
2023/07/03 02:19:20;;;;;;;3.25;2.30;;;;;;;15.53;100.00;97311.81;5137615;28;20325;-60
2023/07/03 02:21:46;;;;;;;6.43;2.30;;;;;;;15.70;100.00;97278.56;5137489;28;20100;-58
2023/07/03 02:24:12;;;;;;;6.72;2.28;;;;;;;15.75;100.00;97267.69;5137621;28;20074;-59
2023/07/03 02:26:38;;;;;;;12.18;3.65;;;;;;;15.94;100.00;97285.22;5137375;28;20163;-59
2023/07/03 02:29:04;;;;;;;6.28;2.47;;;;;;;16.16;100.00;97220.91;5137627;28;20134;-57
2023/07/03 02:31:30;;;;;;;5.10;2.50;;;;;;;16.47;100.00;97213.47;5137244;27;20378;-53
2023/07/03 02:33:57;;;;;;;6.40;2.67;;;;;;;16.91;100.00;97218.94;5137358;27;20104;-53
2023/07/03 02:36:29;;;;;;;5.35;2.42;;;;;;;16.88;100.00;97230.16;5137116;28;20130;-55
2023/07/03 02:38:55;;;;;;;6.15;3.70;;;;;;;17.39;100.00;97276.81;5137525;28;20397;-58
2023/07/03 02:41:22;;;;;;;5.90;2.53;;;;;;;17.69;100.00;97347.25;5136930;28;20047;-58
2023/07/03 02:43:48;;;;;;;4.93;2.50;;;;;;;17.79;100.00;97373.03;5137267;28;20086;-56
2023/07/03 02:46:14;;;;;;;9.90;3.47;;;;;;;18.05;100.00;97402.06;5136986;28;20053;-52
2023/07/03 02:48:40;;;;;;;3.95;2.28;;;;;;;18.27;100.00;97418.63;5137135;28;20051;-54
2023/07/03 02:51:07;;;;;;;8.60;2.92;;;;;;;18.44;100.00;97418.34;5137269;28;20051;-53
2023/07/03 02:53:33;;;;;;;4.72;2.40;;;;;;;18.81;100.00;97458.03;5136985;28;20111;-52
2023/07/03 02:55:59;;;;;;;8.50;2.78;;;;;;;18.88;100.00;97495.84;5137209;28;20046;-59
2023/07/03 02:58:25;;;;;;;3.80;2.38;;;;;;;18.80;100.00;97531.47;5136962;28;20057;-59
2023/07/03 03:00:53;;;;;;;3.50;2.40;;;;;;;19.14;100.00;97568.53;5137119;28;20048;-56
2023/07/03 03:03:18;;;;;;;8.77;3.10;;;;;;;19.34;100.00;97579.97;5136835;28;20055;-56
2023/07/03 03:05:44;;;;;;;5.30;2.60;;;;;;;19.41;100.00;97567.78;5137142;27;20150;-58
2023/07/03 03:08:11;;;;;;;7.35;2.92;;;;;;;19.88;100.00;97613.81;5139269;28;20105;-60
2023/07/03 03:10:37;;;;;;;6.22;2.63;;;;;;;19.94;100.00;97687.03;5140715;28;20078;-61
2023/07/03 03:13:03;;;;;;;6.30;3.50;;;;;;;20.25;100.00;97697.22;5140414;28;20400;-59
2023/07/03 03:15:30;;;;;;;7.88;2.70;;;;;;;20.30;100.00;97730.00;5140224;28;20051;-54
2023/07/03 03:17:56;;;;;;;9.07;4.50;;;;;;;20.55;100.00;97740.03;5140492;27;20108;-59
2023/07/03 03:20:22;;;;;;;7.68;2.30;;;;;;;20.51;100.00;97761.69;5140122;28;20109;-60
2023/07/03 03:22:48;;;;;;;10.18;2.85;;;;;;;20.95;100.00;97787.13;5140102;28;20054;-58
2023/07/03 03:25:15;;;;;;;3.85;2.30;;;;;;;21.05;100.00;97816.50;5140198;28;20078;-57
2023/07/03 03:27:41;;;;;;;3.88;2.15;;;;;;;21.14;100.00;97813.69;5140448;28;20051;-53
2023/07/03 03:30:08;;;;;;;9.02;3.22;;;;;;;21.37;100.00;97836.56;5139931;28;20254;-53
2023/07/03 03:32:34;;;;;;;5.78;2.65;;;;;;;21.30;100.00;97836.88;5140126;28;20047;-56
2023/07/03 03:35:00;;;;;;;5.82;3.10;;;;;;;21.50;100.00;97853.88;5139961;28;20314;-54
2023/07/03 03:37:26;;;;;;;9.85;2.97;;;;;;;21.73;100.00;97871.16;5140403;28;20185;-54
2023/07/03 03:39:52;;;;;;;8.68;2.33;;;;;;;21.92;100.00;97894.13;5139759;28;20142;-56
2023/07/03 03:42:19;;;;;;;7.95;2.30;;;;;;;21.53;100.00;97905.16;5140073;28;20138;-58
2023/07/03 03:44:45;;;;;;;5.22;2.22;;;;;;;22.15;100.00;97912.16;5140041;28;20043;-56
2023/07/03 03:47:11;;;;;;;8.65;2.50;;;;;;;22.41;100.00;97915.28;5139937;28;20050;-59
2023/07/03 03:49:39;;;;;;;7.85;2.40;;;;;;;22.46;100.00;97928.59;5139988;27;20480;-56
2023/07/03 03:52:05;;;;;;;9.32;2.95;;;;;;;22.63;100.00;97937.34;5139519;28;20168;-57
2023/07/03 03:54:31;;;;;;;3.60;1.98;;;;;;;22.36;100.00;97932.69;5139972;28;20058;-53
2023/07/03 03:56:57;;;;;;;6.03;2.30;;;;;;;22.40;100.00;97938.88;5139693;28;20047;-56
2023/07/03 03:59:24;;;;;;;8.82;2.30;;;;;;;22.71;100.00;97947.66;5139904;28;20317;-58
2023/07/03 04:01:50;;;;;;;5.28;2.80;;;;;;;23.09;100.00;97962.94;5139431;28;20428;-61
2023/07/03 04:04:16;;;;;;;4.60;2.80;;;;;;;23.23;100.00;97970.56;5139851;28;20054;-52
2023/07/03 04:06:43;;;;;;;10.07;2.65;;;;;;;23.48;100.00;97972.03;5139348;28;20043;-59
2023/07/03 04:09:09;;;;;;;6.05;2.45;;;;;;;23.60;100.00;97989.03;5139840;28;20051;-56
2023/07/03 04:11:36;;;;;;;5.43;3.63;;;;;;;23.66;100.00;97981.50;5139539;28;20142;-54
2023/07/03 04:14:02;;;;;;;9.52;2.45;;;;;;;23.87;100.00;97999.19;5139433;28;20053;-56
2023/07/03 04:16:31;;;;;;;5.38;2.15;;;;;;;23.92;100.00;97998.50;5139309;27;20413;-56
2023/07/03 04:18:57;;;;;;;5.80;2.53;;;;;;;23.74;100.00;97991.06;5138602;27;20188;-55
2023/07/03 04:21:23;;;;;;;6.38;2.13;;;;;;;23.94;100.00;98002.34;5139552;28;20134;-60
2023/07/03 04:23:49;;;;;;;7.22;2.53;;;;;;;24.40;100.00;98007.44;5139286;28;20061;-54
2023/07/03 04:26:16;;;;;;;7.53;2.92;;;;;;;24.29;100.00;97998.84;5139528;28;20050;-53
2023/07/03 04:28:42;;;;;;;6.18;2.70;;;;;;;24.79;96.47;98015.63;5139100;28;20391;-55
2023/07/03 04:31:08;;;;;;;8.65;3.13;;;;;;;25.05;94.81;98031.72;5139428;28;20058;-57
2023/07/03 04:33:34;;;;;;;7.97;3.45;;;;;;;24.97;96.40;98037.00;5138852;28;20448;-60
2023/07/03 04:36:00;;;;;;;5.93;2.97;;;;;;;25.26;93.13;98041.72;5139369;28;20412;-61
2023/07/03 04:38:26;;;;;;;7.32;3.22;;;;;;;25.19;93.64;98041.34;5138803;27;20058;-59
2023/07/03 04:40:53;;;;;;;7.45;3.40;;;;;;;25.35;93.31;98041.53;5138847;27;20434;-56
2023/07/03 04:43:19;;;;;;;3.97;3.10;;;;;;;25.46;91.11;98048.53;5139159;28;20043;-54
2023/07/03 04:45:47;;;;;;;11.43;3.15;;;;;;;25.62;86.88;98056.38;5139084;28;20051;-58
2023/07/03 04:48:14;;;;;;;8.77;3.08;;;;;;;25.76;87.41;98060.38;5139130;28;20043;-54
2023/07/03 04:50:40;;;;;;;8.48;3.15;;;;;;;25.89;86.30;98055.16;5138651;28;20044;-54
2023/07/03 04:53:06;;;;;;;6.15;2.88;;;;;;;25.87;82.81;98068.16;5138994;28;20058;-56
2023/07/03 04:55:33;;;;;;;5.88;2.80;;;;;;;26.13;81.07;98070.97;5138723;28;20050;-52
2023/07/03 04:58:00;;;;;;;5.38;3.05;;;;;;;26.32;80.44;98074.94;5139089;28;20101;-58
2023/07/03 05:00:27;;;;;;;7.50;3.25;;;;;;;26.64;79.60;98083.38;5138558;28;20043;-53
2023/07/03 05:02:57;;;;;;;7.93;3.33;;;;;;;26.28;81.28;98083.59;5139030;28;20066;-60
2023/07/03 05:05:24;;;;;;;4.90;2.45;;;;;;;26.46;80.34;98087.31;5138440;28;20369;-53
2023/07/03 05:07:51;;;;;;;8.18;3.15;;;;;;;26.29;81.34;98087.16;5138625;28;20055;-56
2023/07/03 05:10:17;;;;;;;5.97;2.40;;;;;;;26.62;75.85;98099.97;5138759;27;20142;-57
2023/07/03 05:12:43;;;;;;;6.97;2.72;;;;;;;26.48;75.79;98099.59;5138638;28;20047;-57
2023/07/03 05:15:11;;;;;;;6.15;2.78;;;;;;;26.15;78.29;98100.06;5138648;28;20059;-52
2023/07/03 05:17:38;;;;;;;6.20;2.90;;;;;;;26.90;71.64;98109.38;5138215;28;20053;-54
2023/07/03 05:20:06;;;;;;;4.53;2.42;;;;;;;26.51;73.83;98106.28;5138634;27;20138;-52
2023/07/03 05:22:35;;;;;;;6.30;2.53;;;;;;;26.87;74.32;98101.16;5138249;28;20063;-52
2023/07/03 05:25:01;;;;;;;4.85;2.60;;;;;;;26.79;71.92;98119.75;5138600;28;20065;-54
2023/07/03 05:27:28;;;;;;;5.97;2.60;;;;;;;26.88;72.21;98117.53;5138172;28;20073;-57
2023/07/03 05:29:54;;;;;;;8.07;2.60;;;;;;;26.82;70.08;98121.56;5137471;27;20109;-56
2023/07/03 05:32:20;;;;;;;7.55;2.70;;;;;;;26.49;73.04;98117.22;5137991;27;20057;-54
2023/07/03 05:34:46;;;;;;;5.00;2.17;;;;;;;27.02;69.44;98129.88;5138423;28;20043;-51
2023/07/03 05:37:12;;;;;;;7.97;2.83;;;;;;;27.21;67.61;98130.28;5138171;28;20139;-52
2023/07/03 05:39:38;;;;;;;4.90;2.30;;;;;;;27.32;69.34;98135.94;5137906;28;20051;-57
2023/07/03 05:42:05;;;;;;;5.13;2.30;;;;;;;27.61;67.29;98145.28;5138222;28;20054;-58
2023/07/03 05:44:31;;;;;;;4.43;2.40;;;;;;;27.99;67.98;98145.94;5137928;28;20050;-59
2023/07/03 05:46:57;;;;;;;4.35;2.50;;;;;;;28.35;65.68;98144.97;5138138;28;20137;-59
2023/07/03 05:49:23;;;;;;;4.90;2.33;;;;;;;28.19;67.11;98142.13;5137856;28;20043;-58
2023/07/03 05:51:49;;;;;;;5.75;2.40;;;;;;;27.84;67.51;98151.81;5138169;28;20129;-58
2023/07/03 05:54:16;;;;;;;5.45;2.42;;;;;;;27.97;68.14;98146.47;5137546;28;20481;-58
2023/07/03 05:56:43;;;;;;;6.53;2.30;;;;;;;27.62;67.66;98156.06;5138129;28;20043;-59
2023/07/03 05:59:09;;;;;;;7.18;2.50;;;;;;;27.87;65.97;98150.78;5137597;28;20147;-58
2023/07/03 06:01:35;;;;;;;7.85;2.88;;;;;;;28.06;65.34;98162.38;5138069;27;20142;-60
2023/07/03 06:04:02;;;;;;;5.38;2.28;;;;;;;28.29;63.16;98171.63;5137483;28;20054;-58
2023/07/03 06:06:28;;;;;;;7.95;3.15;;;;;;;27.83;66.64;98158.72;5137715;28;20082;-53
2023/07/03 06:08:54;;;;;;;6.22;2.70;;;;;;;27.85;66.01;98164.59;5137470;28;20093;-51
2023/07/03 06:11:19;;;;;;;5.85;2.10;;;;;;;27.33;64.84;98159.25;5137612;28;20093;-53
2023/07/03 06:13:45;;;;;;;10.70;2.92;;;;;;;27.80;65.42;98166.13;5137701;28;20142;-53
2023/07/03 06:16:12;;;;;;;6.80;2.28;;;;;;;28.32;63.82;98162.94;5137509;28;20435;-55
2023/07/03 06:18:38;;;;;;;6.68;2.40;;;;;;;28.52;62.81;98169.63;5137399;27;20069;-52
2023/07/03 06:21:04;;;;;;;3.70;1.80;;;;;;;28.13;62.67;98165.47;5137278;28;20392;-55
2023/07/03 06:23:30;;;;;;;4.43;1.98;;;;;;;28.11;60.59;98170.06;5137716;28;20141;-56
2023/07/03 06:25:56;;;;;;;7.72;3.00;;;;;;;28.50;60.80;98175.03;5137218;27;20051;-59
2023/07/03 06:28:22;;;;;;;7.43;2.30;;;;;;;28.73;60.01;98170.16;5137699;27;20047;-57
2023/07/03 06:30:49;;;;;;;5.50;2.53;;;;;;;28.31;61.15;98169.06;5137216;28;20394;-55
2023/07/03 06:33:15;;;;;;;4.50;2.00;;;;;;;28.26;61.31;98161.38;5137558;27;20047;-58
2023/07/03 06:35:41;;;;;;;3.90;1.90;;;;;;;29.22;58.95;98179.09;5137041;27;20377;-59
2023/07/03 06:38:07;;;;;;;3.88;2.00;;;;;;;29.57;58.14;98180.53;5137065;28;20089;-58
2023/07/03 06:40:33;;;;;;;7.15;2.47;;;;;;;29.02;59.53;98180.16;5137556;27;20134;-58
2023/07/03 06:42:59;;;;;;;6.22;2.38;;;;;;;28.95;60.98;98175.75;5140913;28;20082;-56
2023/07/03 06:45:25;;;;;;;7.30;2.42;;;;;;;29.88;59.74;98182.22;5140872;28;20410;-54
2023/07/03 06:47:51;;;;;;;6.80;2.20;;;;;;;29.73;55.90;98191.03;5140790;28;20058;-53
2023/07/03 06:50:18;;;;;;;4.50;2.25;;;;;;;29.64;57.78;98192.09;5141086;28;20119;-59
2023/07/03 06:52:48;;;;;;;5.85;2.83;;;;;;;29.21;58.57;98188.84;5140522;28;20046;-59
2023/07/03 06:55:14;;;;;;;6.10;2.35;;;;;;;29.75;58.50;98192.03;5140877;27;20047;-57
2023/07/03 06:57:39;;;;;;;6.63;2.03;;;;;;;29.54;59.13;98185.16;5140550;28;20047;-58
2023/07/03 07:00:08;;;;;;;5.80;2.22;;;;;;;29.85;57.28;98195.31;5140979;28;20488;-58
2023/07/03 07:02:34;;;;;;;5.32;2.05;;;;;;;29.71;57.49;98196.41;5140437;28;20051;-56
2023/07/03 07:05:00;;;;;;;5.63;2.17;;;;;;;28.60;57.25;98199.63;5140614;28;20055;-58
2023/07/03 07:07:28;;;;;;;4.93;2.15;;;;;;;29.81;55.87;98205.38;5140531;28;20078;-58
2023/07/03 07:09:54;;;;;;;6.43;2.38;;;;;;;29.92;57.07;98203.25;5140308;28;20141;-58
2023/07/03 07:12:21;;;;;;;9.20;2.20;;;;;;;30.54;55.80;98208.59;5140675;27;20055;-59
2023/07/03 07:14:47;;;;;;;7.28;3.15;;;;;;;29.09;55.33;98213.50;5140450;28;20063;-51
2023/07/03 07:17:13;;;;;;;5.82;2.40;;;;;;;29.78;55.83;98207.94;5140469;28;20369;-50
2023/07/03 07:19:39;;;;;;;4.55;2.05;;;;;;;29.55;56.80;98218.50;5140296;27;20047;-52
2023/07/03 07:22:05;;;;;;;4.60;2.30;;;;;;;29.22;56.82;98216.53;5140451;28;20131;-58
2023/07/03 07:24:31;;;;;;;5.20;2.47;;;;;;;29.80;55.54;98212.31;5140089;28;20054;-59
2023/07/03 07:26:58;;;;;;;6.13;2.50;;;;;;;29.63;54.95;98206.72;5140509;27;20043;-57
2023/07/03 07:29:25;;;;;;;5.15;2.20;;;;;;;29.70;55.00;98209.03;5139907;28;20414;-60
2023/07/03 07:31:53;;;;;;;5.78;2.47;;;;;;;29.89;54.69;98214.84;5139938;27;20058;-52
2023/07/03 07:34:19;;;;;;;5.65;2.45;;;;;;;29.91;53.51;98215.84;5140154;28;20054;-58
2023/07/03 07:36:45;;;;;;;3.97;2.20;;;;;;;30.33;53.05;98213.09;5140008;28;20055;-59
2023/07/03 07:39:11;;;;;;;3.90;2.17;;;;;;;30.36;53.75;98214.88;5140181;28;20051;-58
2023/07/03 07:41:37;;;;;;;4.95;2.30;;;;;;;30.60;53.90;98214.97;5139768;28;20503;-56
2023/07/03 07:44:04;;;;;;;4.18;2.10;;;;;;;30.24;54.17;98217.00;5140177;28;20134;-58
2023/07/03 07:46:32;;;;;;;4.75;2.47;;;;;;;30.09;53.80;98205.22;5139797;28;20061;-55
2023/07/03 07:49:00;;;;;;;6.47;2.50;;;;;;;30.31;52.95;98212.84;5140138;27;20061;-58
2023/07/03 07:51:26;;;;;;;5.88;2.53;;;;;;;30.73;52.57;98222.84;5139726;28;20047;-55
2023/07/03 07:53:53;;;;;;;4.88;2.42;;;;;;;30.61;53.07;98215.75;5139074;27;20055;-55
2023/07/03 07:56:20;;;;;;;3.88;2.63;;;;;;;30.87;52.04;98223.81;5139558;28;20047;-59
2023/07/03 07:58:47;;;;;;;3.20;2.25;;;;;;;30.91;51.90;98230.69;5139996;28;20143;-58
2023/07/03 08:01:14;;;;;;;6.68;2.97;;;;;;;30.87;50.76;98232.28;5139744;28;20053;-52
2023/07/03 08:03:41;;;;;;;4.95;2.50;;;;;;;30.79;50.90;98228.47;5139436;28;20043;-56
2023/07/03 08:06:08;;;;;;;7.38;3.03;;;;;;;30.99;51.27;98236.56;5139491;28;20452;-58
2023/07/03 08:08:34;;;;;;;6.20;2.60;;;;;;;31.61;50.68;98225.41;5139552;28;20074;-57
2023/07/03 08:11:03;;;;;;;5.38;2.58;;;;;;;30.93;51.98;98230.19;5139481;28;20099;-56
2023/07/03 08:13:30;;;;;;;6.15;2.58;;;;;;;31.15;51.18;98229.97;5139379;28;20145;-58
2023/07/03 08:15:57;;;;;;;8.70;2.70;;;;;;;31.54;51.01;98237.34;5139568;27;20042;-58
2023/07/03 08:18:24;;;;;;;6.50;2.60;;;;;;;31.84;50.80;98230.81;5139274;28;20061;-53
2023/07/03 08:20:50;;;;;;;6.35;2.92;;;;;;;31.49;50.08;98243.06;5139709;27;20150;-55
2023/07/03 08:23:17;;;;;;;6.07;3.20;;;;;;;31.43;51.07;98233.88;5139185;28;20142;-55
2023/07/03 08:25:43;;;;;;;11.07;3.13;;;;;;;31.58;51.16;98239.88;5139514;27;20431;-55
2023/07/03 08:28:10;;;;;;;9.45;2.90;;;;;;;30.50;50.62;98236.38;5139039;27;20058;-59
2023/07/03 08:30:36;;;;;;;3.88;2.50;;;;;;;29.03;52.87;98233.25;5139282;28;20062;-59
2023/07/03 08:33:03;;;;;;;5.57;2.63;;;;;;;29.19;54.04;98230.91;5139294;27;20141;-59
2023/07/03 08:35:29;;;;;;;6.13;3.50;;;;;;;29.43;53.53;98239.63;5139089;28;20134;-59
2023/07/03 08:37:55;;;;;;;5.68;2.92;;;;;;;29.13;52.71;98233.75;5139060;28;20074;-59
2023/07/03 08:40:22;;;;;;;6.97;3.42;;;;;;;29.24;53.58;98239.38;5138804;28;20107;-56
2023/07/03 08:42:53;;;;;;;6.22;3.03;;;;;;;28.80;55.03;98234.50;5139080;28;20061;-55
2023/07/03 08:45:21;;;;;;;7.15;2.92;;;;;;;28.81;55.42;98231.16;5138824;28;20054;-56
2023/07/03 08:47:49;;;;;;;6.68;2.75;;;;;;;28.03;55.17;98239.44;5139233;28;20146;-55
2023/07/03 08:50:19;;;;;;;8.18;3.70;;;;;;;28.04;57.67;98238.94;5138828;28;20145;-58
2023/07/03 08:52:55;;;;;;;7.53;3.15;;;;;;;27.40;56.42;98234.75;5139090;28;20047;-58
2023/07/03 08:55:25;;;;;;;9.73;3.50;;;;;;;26.86;58.10;98240.22;5138887;28;20167;-54
2023/07/03 08:57:51;;;;;;;7.65;3.67;;;;;;;27.14;57.24;98243.28;5138843;28;20079;-54
2023/07/03 09:00:17;;;;;;;7.30;3.13;;;;;;;26.72;58.75;98251.09;5138927;28;20141;-58
2023/07/03 09:02:51;;;;;;;9.90;3.42;;;;;;;26.17;60.31;98245.66;5138693;28;20051;-53
2023/07/03 09:05:30;;;;;;;6.43;3.55;;;;;;;25.32;62.05;98250.16;5138664;27;20147;-59
2023/07/03 09:08:01;;;;;;;5.32;3.30;;;;;;;25.97;60.54;98240.81;5138450;28;20051;-52
2023/07/03 09:10:35;;;;;;;10.48;3.97;;;;;;;25.65;62.90;98237.81;5138787;27;20043;-53
2023/07/03 09:13:07;;;;;;;4.80;3.15;;;;;;;26.87;58.62;98253.78;5138223;28;20057;-54
2023/07/03 09:15:37;;;;;;;4.15;3.17;;;;;;;27.38;58.64;98254.19;5138571;28;20051;-57
2023/07/03 09:18:12;;;;;;;5.93;3.03;;;;;;;27.52;57.46;98247.59;5138612;28;20047;-59
2023/07/03 09:20:40;;;;;;;6.47;3.47;;;;;;;28.32;55.38;98252.34;5138204;27;20447;-52
2023/07/03 09:23:11;;;;;;;8.30;3.60;;;;;;;28.97;55.07;98254.25;5138519;28;20133;-57
2023/07/03 09:25:43;;;;;;;10.23;3.70;;;;;;;29.43;54.91;98250.16;5138329;28;20075;-59
2023/07/03 09:28:09;;;;;;;5.22;3.30;;;;;;;29.11;54.33;98261.72;5138558;28;20057;-59
2023/07/03 09:30:36;;;;;;;10.80;3.40;;;;;;;28.58;55.46;98264.22;5138055;28;20074;-60
2023/07/03 09:33:01;;;;;;;8.27;3.35;;;;;;;27.94;56.62;98265.03;5138436;28;20047;-51
2023/07/03 09:35:35;;;;;;;7.28;3.47;;;;;;;27.42;56.31;98266.78;5137994;28;20177;-52
2023/07/03 09:38:05;;;;;;;6.22;3.33;;;;;;;28.41;57.32;98263.41;5137851;28;20076;-59
2023/07/03 09:40:37;;;;;;;5.15;3.10;;;;;;;28.60;56.71;98253.19;5138035;28;20112;-51
2023/07/03 09:43:03;;;;;;;7.18;3.25;;;;;;;26.78;57.69;98245.50;5137933;28;20055;-53
2023/07/03 09:45:32;;;;;;;8.45;3.03;;;;;;;25.90;59.78;98256.06;5137954;28;20138;-53
2023/07/03 09:48:00;;;;;;;7.68;3.47;;;;;;;26.47;58.82;98255.44;5137776;28;20435;-52
2023/07/03 09:50:30;;;;;;;7.60;3.30;;;;;;;26.59;60.84;98261.19;5137663;27;20188;-56
2023/07/03 09:52:57;;;;;;;6.63;3.58;;;;;;;27.63;58.26;98261.00;5137516;28;20146;-53
2023/07/03 09:55:25;;;;;;;9.10;3.53;;;;;;;28.69;57.38;98255.03;5138198;28;20047;-53
2023/07/03 09:57:51;;;;;;;9.55;3.50;;;;;;;28.69;56.51;98251.41;5137564;28;20134;-58
2023/07/03 10:00:20;;;;;;;9.35;3.50;;;;;;;29.41;56.05;98261.94;5138130;27;20333;-54
2023/07/03 10:02:51;;;;;;;6.97;3.75;;;;;;;27.90;58.42;98248.38;5137854;27;20056;-60
2023/07/03 10:05:19;;;;;;;7.57;3.63;;;;;;;27.64;59.03;98260.47;5137706;28;20310;-53
2023/07/03 10:07:47;;;;;;;8.40;3.90;;;;;;;27.48;57.56;98258.34;5137752;28;20138;-53
2023/07/03 10:10:17;;;;;;;5.75;3.83;;;;;;;27.85;56.88;98266.75;5137420;28;20068;-60
2023/07/03 10:12:48;;;;;;;10.02;3.85;;;;;;;28.00;57.23;98268.63;5137779;28;20062;-57
2023/07/03 10:15:19;;;;;;;6.85;3.80;;;;;;;28.48;54.67;98253.69;5137090;27;20411;-54
2023/07/03 10:17:50;;;;;;;8.88;4.43;;;;;;;29.16;55.03;98254.50;5137699;28;20047;-59
2023/07/03 10:20:23;;;;;;;6.82;3.78;;;;;;;28.83;54.14;98254.00;5137364;28;20123;-55
2023/07/03 10:22:51;;;;;;;6.55;3.60;;;;;;;28.27;55.12;98262.31;5137729;28;20059;-59
2023/07/03 10:25:23;;;;;;;6.82;3.67;;;;;;;28.99;54.56;98260.13;5137274;28;20051;-56
2023/07/03 10:27:55;;;;;;;9.45;3.95;;;;;;;27.49;55.52;98262.72;5137392;28;20054;-57
2023/07/03 10:30:23;;;;;;;7.97;4.00;;;;;;;27.59;56.83;98268.88;5137579;28;20058;-59
2023/07/03 10:32:53;;;;;;;8.52;4.38;;;;;;;28.41;55.89;98268.28;5137005;28;20051;-55
2023/07/03 10:35:24;;;;;;;7.88;3.95;;;;;;;29.19;54.93;98256.31;5137437;28;20058;-54
2023/07/03 10:37:59;;;;;;;7.45;3.75;;;;;;;29.02;54.64;98267.59;5137220;28;20075;-59
2023/07/03 10:40:32;;;;;;;9.15;4.22;;;;;;;28.33;55.62;98259.53;5137496;28;20043;-60
2023/07/03 10:43:02;;;;;;;7.93;4.00;;;;;;;28.25;55.77;98261.28;5137121;28;20066;-60
2023/07/03 10:45:31;;;;;;;10.00;4.28;;;;;;;26.66;58.24;98261.53;5137270;28;20051;-55
2023/07/03 10:48:03;;;;;;;9.18;4.30;;;;;;;26.40;60.27;98269.91;5137105;27;20066;-54
2023/07/03 10:50:34;;;;;;;8.60;4.25;;;;;;;26.72;60.50;98270.00;5136935;27;20475;-55
2023/07/03 10:53:07;;;;;;;6.30;4.43;;;;;;;26.70;61.79;98264.88;5137238;27;20400;-59
2023/07/03 10:55:40;;;;;;;11.73;4.90;;;;;;;27.24;61.20;98272.78;5137043;27;20047;-55
2023/07/03 10:58:14;;;;;;;6.72;3.00;;;;;;;26.51;58.98;98274.91;5137322;28;20058;-51
2023/07/03 11:00:48;;;;;;;11.00;4.88;;;;;;;26.85;60.25;98272.41;5136834;28;20317;-58
2023/07/03 11:03:21;;;;;;;10.05;4.45;;;;;;;25.95;62.61;98255.34;5137314;28;20051;-59
2023/07/03 11:05:54;;;;;;;8.13;3.60;;;;;;;25.89;63.04;98265.75;5137007;28;20052;-57
2023/07/03 11:08:27;;;;;;;6.28;4.20;;;;;;;25.63;64.80;98262.81;5136954;28;20047;-51
2023/07/03 11:11:02;;;;;;;6.45;3.17;;;;;;;25.35;65.51;98268.78;5136987;28;20099;-57
2023/07/03 11:13:37;;;;;;;9.43;4.03;;;;;;;25.79;65.39;98259.47;5136541;28;20336;-54
2023/07/03 11:16:12;;;;;;;8.48;4.80;;;;;;;25.95;64.00;98271.41;5137015;28;20058;-52
2023/07/03 11:18:48;;;;;;;9.02;3.50;;;;;;;25.62;64.08;98261.25;5136665;28;20142;-55
2023/07/03 11:21:25;;;;;;;8.20;4.55;;;;;;;25.29;65.04;98264.34;5137052;28;20476;-56
2023/07/03 11:24:01;;;;;;;8.40;4.45;;;;;;;25.69;65.85;98263.69;5136867;28;20130;-57
2023/07/03 11:26:36;;;;;;;8.57;4.53;;;;;;;25.83;64.99;98259.28;5136720;28;20047;-50
2023/07/03 11:29:05;;;;;;;10.45;2.83;;;;;;;26.00;66.26;98257.47;5139167;28;20135;-59
2023/07/03 11:31:32;;;;;;;10.77;4.60;;;;;;;25.54;64.27;98255.28;5140155;28;20142;-52